Saturday, February 24, 2018, 3:20 AM EST
Back to Local

KPVC, Provincetown, Provincetown Municipal Airport

Location: Provincetown, MA, United States Lat: 42.067
Local Time: 3:20 AM EST ( 8:20 GMT) Lon: -70.217
Time Zone: US/Eastern Elev: 6 ft

Show me the last for .
Show Decoded

2018-02-24 02:56 METAR KPVC 240756Z AUTO 25014KT 10SM CLR 04/03 A3002 RMK AO2 SLP166 T00440033 =
2018-02-24 01:56 METAR KPVC 240656Z AUTO 25010KT 10SM SCT008 04/04 A3004 RMK AO2 SLP173 T00390039
                 =
2018-02-24 01:13 METAR KPVC 240613Z AUTO 23010KT 10SM FEW002 BKN008 03/03 A3005 RMK AO2 =
2018-02-24 00:56 METAR KPVC 240556Z AUTO 24010KT 10SM BKN002 BKN008 03/03 A3006 RMK AO2 SLP177
                 60009 T00280028 10033 20022 56036 =
2018-02-24 00:44 METAR KPVC 240544Z AUTO 24009KT 9SM OVC002 03/03 A3006 RMK AO2 =
2018-02-24 00:17 METAR KPVC 240517Z AUTO 25008KT 8SM BKN004 BKN007 OVC110 03/03 A3007 RMK AO2 =
2018-02-24 00:05 METAR KPVC 240505Z AUTO 26009KT 4SM BR SCT004 BKN008 BKN110 03/03 A3008 RMK AO2
                 CIG 004V011 =
2018-02-23 23:56 METAR KPVC 240456Z AUTO 26006KT 2 1/2SM BR BKN004 BKN110 03/03 A3008 RMK AO2
                 RAE09 CIG 002V007 SLP187 P0000 T00280028 400610011 =
2018-02-23 23:34 METAR KPVC 240434Z AUTO 27006KT 2 1/2SM BR BKN004 03/03 A3010 RMK AO2 RAE09
                 PRESFR P0000 =
2018-02-23 23:20 METAR KPVC 240420Z AUTO 28009KT 3SM BR OVC004 03/03 A3012 RMK AO2 RAE09 CIG
                 002V006 P0000 =
2018-02-23 22:56 METAR KPVC 240356Z AUTO 26007KT 2SM -RA BR OVC004 03/03 A3012 RMK AO2 SLP200
                 P0001 T00330028 =
2018-02-23 22:17 METAR KPVC 240317Z AUTO 24005KT 1 1/2SM -RA BR OVC004 03/03 A3016 RMK AO2 P0000
                 =
2018-02-23 21:56 METAR KPVC 240256Z AUTO 22005KT 2SM -RA BR OVC004 03/03 A3016 RMK AO2 SLP213
                 P0001 60008 T00330033 56052 =
2018-02-23 21:22 METAR KPVC 240222Z AUTO 20004KT 2 1/2SM -RA BR OVC002 03/03 A3020 RMK AO2 P0001
                 =
2018-02-23 20:56 METAR KPVC 240156Z AUTO 19006KT 4SM -RA BR OVC004 03/03 A3021 RMK AO2 SLP230
                 P0004 T00330028 =
2018-02-23 20:17 METAR KPVC 240117Z AUTO 18009KT 5SM -RA BR BKN004 OVC014 03/02 A3024 RMK AO2
                 P0001 =
2018-02-23 19:56 METAR KPVC 240056Z AUTO 15009KT 10SM -RA FEW006 OVC014 03/02 A3024 RMK AO2
                 PRESFR SLP238 P0003 T00280022 =
2018-02-23 19:28 METAR KPVC 240028Z AUTO 17009KT 9SM -RA OVC014 03/02 A3029 RMK AO2 P0002 =
2018-02-23 18:56 METAR KPVC 232356Z AUTO 16006KT 8SM -RA OVC018 02/01 A3032 RMK AO2 SLP265 P0003
                 60004 T00220011 10050 20022 56051 FZRANO =
2018-02-23 17:56 METAR KPVC 232256Z AUTO 14007KT 10SM -RA OVC022 03/01 A3035 RMK AO2 RAB21 PRESFR
                 SLP278 P0000 T00280006 =
2018-02-23 17:21 METAR KPVC 232221Z AUTO 16009KT 10SM -RA BKN027 OVC050 03/01 A3041 RMK AO2 RAB21
                 P0000 =
2018-02-23 16:56 METAR KPVC 232156Z AUTO 16007KT 10SM OVC050 03/01 A3041 RMK AO2 RAE41 SLP298
                 P0000 T00330006 =
2018-02-23 15:56 METAR KPVC 232056Z AUTO 14004KT 10SM -RA FEW047 OVC060 03/01 A3047 RMK AO2
                 SLP316 P0000 60001 T00330006 58035 =
2018-02-23 14:56 METAR KPVC 231956Z AUTO 15006KT 10SM -RA FEW026 SCT050 OVC065 03/01 A3052 RMK
                 AO2 SLP334 P0001 T00330006 =
2018-02-23 13:56 METAR KPVC 231856Z AUTO 13008KT 10SM -RA OVC090 04/M01 A3054 RMK AO2 RAB53
                 SLP341 P0000 T00391011 =
2018-02-23 12:56 METAR KPVC 231756Z AUTO 13009G15KT 090V160 10SM FEW110 05/M02 A3057 RMK AO2
                 SLP352 T00501017 10061 20028 58030 =
2018-02-23 11:56 METAR KPVC 231656Z AUTO 14009KT 10SM FEW120 05/M02 A3060 RMK AO2 SLP362
                 T00501022 =
2018-02-23 10:56 METAR KPVC 231556Z AUTO 14009KT 10SM CLR 06/M03 A3064 RMK AO2 SLP375 T00561028 =
2018-02-23 09:56 METAR KPVC 231456Z AUTO 09010KT 10SM CLR 05/M03 A3066 RMK AO2 SLP381 T00501028
                 58014 =
2018-02-23 08:56 METAR KPVC 231356Z AUTO 09012KT 10SM CLR 04/M03 A3068 RMK AO2 SLP389 T00441033 =
2018-02-23 07:56 METAR KPVC 231256Z AUTO 09010KT 10SM CLR 04/M04 A3069 RMK AO2 SLP393 T00441039 =
2018-02-23 06:56 METAR KPVC 231156Z AUTO 06008KT 10SM CLR 03/M04 A3070 RMK AO2 SLP395 70001
                 T00281039 10028 20011 53002 =
2018-02-23 05:56 METAR KPVC 231056Z AUTO 05007KT 10SM SCT027 01/M02 A3070 RMK AO2 SLP395
                 T00111017 FZRANO =
2018-02-23 04:56 METAR KPVC 230956Z AUTO 05007KT 10SM FEW027 01/M02 A3068 RMK AO2 SLP387
                 T00111017 FZRANO =
2018-02-23 03:56 METAR KPVC 230856Z AUTO 03007KT 10SM CLR 01/M02 A3069 RMK AO2 SLP393 T00111022
                 53000 FZRANO =

Support USWX by starting your Amazon purchase here.